createdAt,value
2017-10-18T00:00:21.949Z,1032.99
2017-10-18T00:01:21.935Z,1033.01
2017-10-18T00:02:21.936Z,1033.01
2017-10-18T00:03:21.926Z,1033.01
2017-10-18T00:04:21.916Z,1033.02
2017-10-18T00:05:21.905Z,1033.01
2017-10-18T00:06:21.897Z,1033.04
2017-10-18T00:07:21.893Z,1033.04
2017-10-18T00:08:21.884Z,1033.07
2017-10-18T00:09:21.877Z,1033.05
2017-10-18T00:10:21.865Z,1033.09
2017-10-18T00:11:21.859Z,1033.11
2017-10-18T00:12:21.849Z,1033.14
2017-10-18T00:13:21.844Z,1033.15
2017-10-18T00:14:21.833Z,1033.13
2017-10-18T00:15:21.830Z,1033.14
2017-10-18T00:16:21.817Z,1033.12
2017-10-18T00:17:21.814Z,1033.13
2017-10-18T00:18:21.803Z,1033.12
2017-10-18T00:19:21.798Z,1033.12
2017-10-18T00:20:21.787Z,1033.14
2017-10-18T00:21:21.775Z,1033.1
2017-10-18T00:22:21.768Z,1033.07
2017-10-18T00:23:21.764Z,1033.06
2017-10-18T00:24:21.757Z,1033.07
2017-10-18T00:25:21.748Z,1033.04
2017-10-18T00:26:21.734Z,1033.04
2017-10-18T00:27:21.730Z,1033.09
2017-10-18T00:28:21.718Z,1033.09
2017-10-18T00:29:21.714Z,1033.08
2017-10-18T00:30:21.703Z,1033.07
2017-10-18T00:31:21.701Z,1033.08
2017-10-18T00:32:21.692Z,1033.09
2017-10-18T00:33:21.678Z,1033.06
2017-10-18T00:34:21.673Z,1033.07
2017-10-18T00:35:21.665Z,1033.02
2017-10-18T00:36:21.658Z,1033.04
2017-10-18T00:37:21.644Z,1033.01
2017-10-18T00:38:21.638Z,1032.99
2017-10-18T00:39:21.640Z,1033
2017-10-18T00:40:21.627Z,1032.97
2017-10-18T00:41:21.618Z,1032.95
2017-10-18T00:42:21.603Z,1032.96
2017-10-18T00:43:21.601Z,1032.91
2017-10-18T00:44:21.591Z,1032.94
2017-10-18T00:45:21.579Z,1032.93
2017-10-18T00:46:21.576Z,1032.91
2017-10-18T00:47:21.563Z,1032.95
2017-10-18T00:48:21.560Z,1032.92
2017-10-18T00:49:21.546Z,1032.91
2017-10-18T00:50:21.542Z,1032.89
2017-10-18T00:51:21.534Z,1032.87
2017-10-18T00:52:21.527Z,1032.85
2017-10-18T00:53:21.518Z,1032.89
2017-10-18T00:54:21.506Z,1032.89
2017-10-18T00:55:21.502Z,1032.85
2017-10-18T00:56:21.494Z,1032.86
2017-10-18T00:57:21.485Z,1032.88
2017-10-18T00:58:21.474Z,1032.85
2017-10-18T00:59:21.469Z,1032.83
2017-10-18T01:00:21.456Z,1032.84
2017-10-18T01:01:21.453Z,1032.84
2017-10-18T01:02:21.439Z,1032.8
2017-10-18T01:03:21.436Z,1032.83
2017-10-18T01:04:21.674Z,1032.83
2017-10-18T01:05:21.420Z,1032.81
2017-10-18T01:06:21.408Z,1032.83
2017-10-18T01:07:21.399Z,1032.78
2017-10-18T01:08:21.391Z,1032.8
2017-10-18T01:09:21.387Z,1032.81
2017-10-18T01:10:21.374Z,1032.8
2017-10-18T01:11:21.370Z,1032.81
2017-10-18T01:12:21.361Z,1032.78
2017-10-18T01:13:21.359Z,1032.79
2017-10-18T01:14:21.342Z,1032.79
2017-10-18T01:15:21.339Z,1032.76
2017-10-18T01:16:21.344Z,1032.75
2017-10-18T01:17:21.320Z,1032.75
2017-10-18T01:18:21.310Z,1032.72
2017-10-18T01:19:21.303Z,1032.7
2017-10-18T01:20:21.291Z,1032.71
2017-10-18T01:21:21.284Z,1032.66
2017-10-18T01:22:21.274Z,1032.68
2017-10-18T01:23:21.264Z,1032.67
2017-10-18T01:24:21.256Z,1032.69
2017-10-18T01:25:21.252Z,1032.68
2017-10-18T01:26:21.244Z,1032.64
2017-10-18T01:27:21.231Z,1032.64
2017-10-18T01:28:21.222Z,1032.67
2017-10-18T01:29:21.222Z,1032.65
2017-10-18T01:30:21.210Z,1032.64
2017-10-18T01:31:21.197Z,1032.63
2017-10-18T01:32:21.192Z,1032.63
2017-10-18T01:33:21.180Z,1032.66
2017-10-18T01:34:21.178Z,1032.64
2017-10-18T01:35:21.413Z,1032.63
2017-10-18T01:36:21.154Z,1032.65
2017-10-18T01:37:21.151Z,1032.62
2017-10-18T01:38:21.137Z,1032.59
2017-10-18T01:39:21.128Z,1032.64
2017-10-18T01:40:21.120Z,1032.61
2017-10-18T01:41:21.116Z,1032.53
2017-10-18T01:42:21.118Z,1032.54
2017-10-18T01:43:21.095Z,1032.55
2017-10-18T01:44:21.087Z,1032.57
2017-10-18T01:45:21.080Z,1032.55
2017-10-18T01:46:21.073Z,1032.54
2017-10-18T01:47:21.076Z,1032.57
2017-10-18T01:48:21.058Z,1032.54
2017-10-18T01:49:21.045Z,1032.56
2017-10-18T01:50:21.038Z,1032.56
2017-10-18T01:51:21.026Z,1032.53
2017-10-18T01:52:21.022Z,1032.59
2017-10-18T01:53:21.010Z,1032.61
2017-10-18T01:54:21.008Z,1032.58
2017-10-18T01:55:20.998Z,1032.6
2017-10-18T01:56:20.990Z,1032.56
2017-10-18T01:57:20.975Z,1032.58
2017-10-18T01:58:20.965Z,1032.53
2017-10-18T01:59:20.962Z,1032.49
2017-10-18T02:00:20.955Z,1032.53
2017-10-18T02:01:20.941Z,1032.53
2017-10-18T02:02:20.941Z,1032.51
2017-10-18T02:03:20.925Z,1032.51
2017-10-18T02:04:20.922Z,1032.52
2017-10-18T02:05:20.908Z,1032.51
2017-10-18T02:06:20.903Z,1032.55
2017-10-18T02:07:20.891Z,1032.53
2017-10-18T02:08:20.885Z,1032.53
2017-10-18T02:09:20.871Z,1032.52
2017-10-18T02:10:20.869Z,1032.5
2017-10-18T02:11:20.861Z,1032.49
2017-10-18T02:12:20.851Z,1032.49
2017-10-18T02:13:20.839Z,1032.52
2017-10-18T02:14:20.837Z,1032.52
2017-10-18T02:15:20.822Z,1032.53
2017-10-18T02:16:20.812Z,1032.52
2017-10-18T02:17:20.804Z,1032.5
2017-10-18T02:18:20.798Z,1032.49
2017-10-18T02:19:20.785Z,1032.45
2017-10-18T02:20:20.782Z,1032.44
2017-10-18T02:21:20.769Z,1032.41
2017-10-18T02:22:20.767Z,1032.39
2017-10-18T02:23:20.753Z,1032.37
2017-10-18T02:24:20.749Z,1032.38
2017-10-18T02:25:20.741Z,1032.33
2017-10-18T02:26:20.732Z,1032.34
2017-10-18T02:27:20.717Z,1032.32
2017-10-18T02:28:20.708Z,1032.3
2017-10-18T02:29:20.704Z,1032.31
2017-10-18T02:30:20.697Z,1032.29
2017-10-18T02:31:20.685Z,1032.25
2017-10-18T02:32:20.675Z,1032.23
2017-10-18T02:33:20.666Z,1032.25
2017-10-18T02:34:20.660Z,1032.23
2017-10-18T02:35:20.647Z,1032.24
2017-10-18T02:36:20.644Z,1032.22
2017-10-18T02:37:20.633Z,1032.23
2017-10-18T02:38:20.628Z,1032.22
2017-10-18T02:39:20.614Z,1032.23
2017-10-18T02:40:20.609Z,1032.25
2017-10-18T02:41:20.596Z,1032.27
2017-10-18T02:42:20.593Z,1032.22
2017-10-18T02:43:20.585Z,1032.25
2017-10-18T02:44:20.577Z,1032.22
2017-10-18T02:45:20.569Z,1032.25
2017-10-18T02:46:20.553Z,1032.2
2017-10-18T02:47:20.548Z,1032.21
2017-10-18T02:48:20.540Z,1032.21
2017-10-18T02:49:20.531Z,1032.21
2017-10-18T02:50:20.519Z,1032.22
2017-10-18T02:51:20.516Z,1032.19
2017-10-18T02:52:20.506Z,1032.2
2017-10-18T02:53:20.493Z,1032.21
2017-10-18T02:54:20.493Z,1032.18
2017-10-18T02:55:20.504Z,1032.2
2017-10-18T02:56:20.470Z,1032.18
2017-10-18T02:57:20.457Z,1032.23
2017-10-18T02:58:20.456Z,1032.24
2017-10-18T02:59:20.447Z,1032.21
2017-10-18T03:00:20.437Z,1032.24
2017-10-18T03:01:20.424Z,1032.22
2017-10-18T03:02:20.415Z,1032.26
2017-10-18T03:03:20.414Z,1032.28
2017-10-18T03:04:20.401Z,1032.29
2017-10-18T03:05:20.394Z,1032.3
2017-10-18T03:06:20.380Z,1032.33
2017-10-18T03:07:20.374Z,1032.31
2017-10-18T03:08:20.362Z,1032.3
2017-10-18T03:09:20.357Z,1032.29
2017-10-18T03:10:20.347Z,1032.29
2017-10-18T03:11:20.341Z,1032.26
2017-10-18T03:12:20.328Z,1032.18
2017-10-18T03:13:20.325Z,1032.19
2017-10-18T03:14:20.310Z,1032.15
2017-10-18T03:15:20.300Z,1032.15
2017-10-18T03:16:20.291Z,1032.1
2017-10-18T03:17:20.288Z,1032.08
2017-10-18T03:18:20.275Z,1032.07
2017-10-18T03:19:20.271Z,1032.08
2017-10-18T03:20:20.262Z,1032.09
2017-10-18T03:21:20.254Z,1032.13
2017-10-18T03:22:20.239Z,1032.12
2017-10-18T03:23:20.242Z,1032.14
2017-10-18T03:24:20.228Z,1032.14
2017-10-18T03:25:20.216Z,1032.14
2017-10-18T03:26:20.204Z,1032.16
2017-10-18T03:27:20.201Z,1032.15
2017-10-18T03:28:20.189Z,1032.18
2017-10-18T03:29:20.183Z,1032.15
2017-10-18T03:30:20.171Z,1032.2
2017-10-18T03:31:20.163Z,1032.23
2017-10-18T03:32:20.152Z,1032.21
2017-10-18T03:33:20.148Z,1032.22
2017-10-18T03:34:20.139Z,1032.2
2017-10-18T03:35:20.126Z,1032.17
2017-10-18T03:36:20.116Z,1032.17
2017-10-18T03:37:20.114Z,1032.13
2017-10-18T03:38:20.110Z,1032.11
2017-10-18T03:39:20.092Z,1032.1
2017-10-18T03:40:20.087Z,1032.13
2017-10-18T03:41:20.081Z,1032.11
2017-10-18T03:42:20.069Z,1032.09
2017-10-18T03:43:20.054Z,1032.1
2017-10-18T03:44:20.046Z,1032.12
2017-10-18T03:45:20.043Z,1032.12
2017-10-18T03:46:20.034Z,1032.11
2017-10-18T03:47:20.021Z,1032.15
2017-10-18T03:48:20.012Z,1032.15
2017-10-18T03:49:20.010Z,1032.17
2017-10-18T03:50:20.000Z,1032.17
2017-10-18T03:51:19.985Z,1032.19
2017-10-18T03:52:19.976Z,1032.17
2017-10-18T03:53:19.968Z,1032.12
2017-10-18T03:54:19.963Z,1032.11
2017-10-18T03:55:19.952Z,1032.11
2017-10-18T03:56:19.941Z,1032.09
2017-10-18T03:57:19.940Z,1032.06
2017-10-18T03:58:19.925Z,1032.06
2017-10-18T03:59:19.921Z,1032.08
2017-10-18T04:00:19.909Z,1032.07
2017-10-18T04:01:19.905Z,1032.07
2017-10-18T04:02:19.888Z,1032.04
2017-10-18T04:03:19.880Z,1032.05
2017-10-18T04:04:19.872Z,1032.03
2017-10-18T04:05:19.868Z,1032.01
2017-10-18T04:06:19.860Z,1032.04
2017-10-18T04:07:19.847Z,1032.02
2017-10-18T04:08:19.839Z,1032.02
2017-10-18T04:09:19.832Z,1032.01
2017-10-18T04:10:19.820Z,1032.03
2017-10-18T04:11:19.816Z,1031.95
2017-10-18T04:12:19.803Z,1031.91
2017-10-18T04:13:19.798Z,1031.96
2017-10-18T04:14:19.787Z,1032
2017-10-18T04:15:19.794Z,1031.97
2017-10-18T04:16:19.769Z,1031.99
2017-10-18T04:17:19.767Z,1032.06
2017-10-18T04:18:19.750Z,1032.02
2017-10-18T04:19:19.742Z,1032.04
2017-10-18T04:20:19.732Z,1032.05
2017-10-18T04:21:19.729Z,1032.05
2017-10-18T04:22:19.721Z,1032.09
2017-10-18T04:23:19.707Z,1032.03
2017-10-18T04:24:19.697Z,1032.06
2017-10-18T04:25:19.690Z,1032.06
2017-10-18T04:26:19.691Z,1032.05
2017-10-18T04:27:19.672Z,1032.08
2017-10-18T04:28:19.675Z,1032.09
2017-10-18T04:29:19.655Z,1032.08
2017-10-18T04:30:19.649Z,1032.07
2017-10-18T04:31:19.636Z,1032.08
2017-10-18T04:32:19.631Z,1032.07
2017-10-18T04:33:19.620Z,1032.05
2017-10-18T04:34:19.615Z,1032.1
2017-10-18T04:35:19.603Z,1032.05
2017-10-18T04:36:19.595Z,1032.05
2017-10-18T04:37:19.591Z,1032.04
2017-10-18T04:38:19.579Z,1032.03
2017-10-18T04:39:19.566Z,1032.05
2017-10-18T04:40:19.558Z,1032.03
2017-10-18T04:41:19.551Z,1032.05
2017-10-18T04:42:19.796Z,1032.09
2017-10-18T04:43:19.533Z,1032.07
2017-10-18T04:44:19.530Z,1032.1
2017-10-18T04:45:19.516Z,1032.09
2017-10-18T04:46:19.510Z,1032.03
2017-10-18T04:47:19.496Z,1032.02
2017-10-18T04:48:19.493Z,1031.93
2017-10-18T04:49:19.479Z,1031.81
2017-10-18T04:50:19.474Z,1031.73
2017-10-18T04:51:19.466Z,1031.71
2017-10-18T04:52:19.457Z,1031.67
2017-10-18T04:53:19.443Z,1031.62
2017-10-18T04:54:19.437Z,1031.58
2017-10-18T04:55:19.433Z,1031.56
2017-10-18T04:56:19.423Z,1031.5
2017-10-18T04:57:19.415Z,1031.48
2017-10-18T04:58:19.401Z,1031.42
2017-10-18T04:59:19.396Z,1031.39
2017-10-18T05:00:19.388Z,1031.41
2017-10-18T05:01:19.375Z,1031.4
2017-10-18T05:02:19.379Z,1031.37
2017-10-18T05:03:19.360Z,1031.35
2017-10-18T05:04:19.354Z,1031.35
2017-10-18T05:05:19.342Z,1031.32
2017-10-18T05:06:19.337Z,1031.31
2017-10-18T05:07:19.328Z,1031.28
2017-10-18T05:08:19.318Z,1031.27
2017-10-18T05:09:19.307Z,1031.22
2017-10-18T05:10:19.314Z,1031.23
2017-10-18T05:11:19.296Z,1031.23
2017-10-18T05:12:19.294Z,1031.23
2017-10-18T05:13:19.278Z,1031.23
2017-10-18T05:14:19.266Z,1031.22
2017-10-18T05:15:19.262Z,1031.18
2017-10-18T05:16:19.250Z,1031.17
2017-10-18T05:17:19.245Z,1031.16
2017-10-18T05:18:19.230Z,1031.15
2017-10-18T05:19:19.227Z,1031.16
2017-10-18T05:20:19.214Z,1031.19
2017-10-18T05:21:19.210Z,1031.25
2017-10-18T05:22:19.198Z,1031.24
2017-10-18T05:23:19.190Z,1031.25
2017-10-18T05:24:19.181Z,1031.25
2017-10-18T05:25:19.179Z,1031.26
2017-10-18T05:26:19.163Z,1031.24
2017-10-18T05:27:19.164Z,1031.25
2017-10-18T05:28:19.157Z,1031.25
2017-10-18T05:29:19.147Z,1031.28
2017-10-18T05:30:19.132Z,1031.24
2017-10-18T05:31:19.128Z,1031.26
2017-10-18T05:32:19.117Z,1031.24
2017-10-18T05:33:19.112Z,1031.25
2017-10-18T05:34:19.098Z,1031.28
2017-10-18T05:35:19.095Z,1031.29
2017-10-18T05:36:19.082Z,1031.27
2017-10-18T05:37:19.079Z,1031.33
2017-10-18T05:38:19.066Z,1031.37
2017-10-18T05:39:19.064Z,1031.37
2017-10-18T05:40:19.053Z,1031.4
2017-10-18T05:41:19.040Z,1031.41
2017-10-18T05:42:19.033Z,1031.43
2017-10-18T05:43:19.030Z,1031.43
2017-10-18T05:44:19.020Z,1031.44
2017-10-18T05:45:19.013Z,1031.45
2017-10-18T05:46:19.011Z,1031.49
2017-10-18T05:47:18.996Z,1031.53
2017-10-18T05:48:18.983Z,1031.53
2017-10-18T05:49:18.978Z,1031.5
2017-10-18T05:50:18.967Z,1031.54
2017-10-18T05:51:18.964Z,1031.49
2017-10-18T05:52:18.956Z,1031.47
2017-10-18T05:53:18.943Z,1031.45
2017-10-18T05:54:18.941Z,1031.47
2017-10-18T05:55:18.929Z,1031.48
2017-10-18T05:56:18.922Z,1031.42
2017-10-18T05:57:18.909Z,1031.4
2017-10-18T05:58:18.902Z,1031.39
2017-10-18T05:59:18.898Z,1031.38
2017-10-18T06:00:18.891Z,1031.35
2017-10-18T06:01:18.883Z,1031.36
2017-10-18T06:02:18.870Z,1031.3
2017-10-18T06:03:18.865Z,1031.25
2017-10-18T06:04:18.852Z,1031.24
2017-10-18T06:05:18.850Z,1031.2
2017-10-18T06:06:18.834Z,1031.18
2017-10-18T06:07:18.836Z,1031.1
2017-10-18T06:08:18.820Z,1031.13
2017-10-18T06:09:18.821Z,1031.08
2017-10-18T06:10:18.806Z,1031.13
2017-10-18T06:11:18.796Z,1031.14
2017-10-18T06:12:18.788Z,1031.13
2017-10-18T06:13:18.784Z,1031.08
2017-10-18T06:14:18.775Z,1031.05
2017-10-18T06:15:18.763Z,1030.98
2017-10-18T06:16:18.755Z,1030.93
2017-10-18T06:17:18.751Z,1030.85
2017-10-18T06:18:18.738Z,1030.84
2017-10-18T06:19:18.738Z,1030.81
2017-10-18T06:20:18.729Z,1030.77
2017-10-18T06:21:18.720Z,1030.76
2017-10-18T06:22:18.706Z,1030.75
2017-10-18T06:23:18.703Z,1030.76
2017-10-18T06:24:18.691Z,1030.68
2017-10-18T06:25:18.688Z,1030.65
2017-10-18T06:26:18.677Z,1030.67
2017-10-18T06:27:18.668Z,1030.64
2017-10-18T06:28:18.661Z,1030.64
2017-10-18T06:29:18.657Z,1030.64
2017-10-18T06:30:18.652Z,1030.65
2017-10-18T06:31:18.638Z,1030.64
2017-10-18T06:32:18.634Z,1030.65
2017-10-18T06:33:18.627Z,1030.67
2017-10-18T06:34:18.619Z,1030.66
2017-10-18T06:35:18.614Z,1030.66
2017-10-18T06:36:18.602Z,1030.75
2017-10-18T06:37:18.590Z,1030.81
2017-10-18T06:38:18.589Z,1030.84
2017-10-18T06:39:18.579Z,1030.85
2017-10-18T06:40:18.574Z,1030.85
2017-10-18T06:41:18.562Z,1030.84
2017-10-18T06:42:18.560Z,1030.9
2017-10-18T06:43:18.551Z,1030.86
2017-10-18T06:44:18.539Z,1030.84
2017-10-18T06:45:18.536Z,1030.78
2017-10-18T06:46:18.528Z,1030.8
2017-10-18T06:47:18.516Z,1030.79
2017-10-18T06:48:18.513Z,1030.82
2017-10-18T06:49:18.502Z,1030.83
2017-10-18T06:50:18.498Z,1030.69
2017-10-18T06:51:18.487Z,1030.72
2017-10-18T06:52:18.488Z,1030.66
2017-10-18T06:53:18.472Z,1030.65
2017-10-18T06:54:18.470Z,1030.67
2017-10-18T06:55:18.458Z,1030.68
2017-10-18T06:56:18.454Z,1030.64
2017-10-18T06:57:18.441Z,1030.64
2017-10-18T06:58:18.436Z,1030.6
2017-10-18T06:59:18.428Z,1030.61
2017-10-18T07:00:18.421Z,1030.51
2017-10-18T07:01:18.418Z,1030.47
2017-10-18T07:02:18.407Z,1030.37
2017-10-18T07:03:18.398Z,1030.3
2017-10-18T07:04:18.390Z,1030.23
2017-10-18T07:05:18.385Z,1030.19
2017-10-18T07:06:18.380Z,1030.11
2017-10-18T07:07:18.372Z,1030.08
2017-10-18T07:08:18.364Z,1030.01
2017-10-18T07:09:18.357Z,1029.97
2017-10-18T07:10:18.350Z,1029.97
2017-10-18T07:11:18.342Z,1030.02
2017-10-18T07:12:18.334Z,1029.92
2017-10-18T07:13:18.328Z,1029.87
2017-10-18T07:14:18.322Z,1029.86
2017-10-18T07:15:18.315Z,1029.85
2017-10-18T07:16:18.310Z,1029.86
2017-10-18T07:17:18.303Z,1029.83
2017-10-18T07:18:18.295Z,1029.82
2017-10-18T07:19:18.287Z,1029.8
2017-10-18T07:20:18.281Z,1029.79
2017-10-18T07:21:18.275Z,1029.83
2017-10-18T07:22:18.270Z,1029.88
2017-10-18T07:23:18.264Z,1029.93
2017-10-18T07:24:18.258Z,1029.94
2017-10-18T07:25:18.251Z,1029.96
2017-10-18T07:26:18.245Z,1030.01
2017-10-18T07:27:18.237Z,1030.07
2017-10-18T07:28:18.230Z,1030.01
2017-10-18T07:29:18.224Z,1029.9
2017-10-18T07:30:18.218Z,1029.8
2017-10-18T07:31:18.212Z,1029.71
2017-10-18T07:32:18.205Z,1029.61
2017-10-18T07:33:18.197Z,1029.55
2017-10-18T07:34:18.191Z,1029.5
2017-10-18T07:35:18.185Z,1029.44
2017-10-18T07:36:18.179Z,1029.41
2017-10-18T07:37:18.172Z,1029.38
2017-10-18T07:38:18.166Z,1029.3
2017-10-18T07:39:18.162Z,1029.28
2017-10-18T07:40:18.157Z,1029.12
2017-10-18T07:41:18.149Z,1029.03
2017-10-18T07:42:18.142Z,1028.96
2017-10-18T07:43:18.137Z,1028.84
2017-10-18T07:44:18.130Z,1028.75
2017-10-18T07:45:18.123Z,1028.69
2017-10-18T07:46:18.119Z,1028.65
2017-10-18T07:47:18.112Z,1028.61
2017-10-18T07:48:18.107Z,1028.61
2017-10-18T07:49:18.350Z,1028.62
2017-10-18T07:50:18.097Z,1028.64
2017-10-18T07:51:18.093Z,1028.68
2017-10-18T07:52:18.085Z,1028.66
2017-10-18T07:53:18.080Z,1028.6
2017-10-18T07:54:18.073Z,1028.48
2017-10-18T07:55:18.068Z,1028.45
2017-10-18T07:56:18.064Z,1028.39
2017-10-18T07:57:18.057Z,1028.37
2017-10-18T07:58:18.054Z,1028.32
2017-10-18T07:59:18.050Z,1028.26
2017-10-18T08:00:18.043Z,1028.22
2017-10-18T08:01:18.038Z,1028.2
2017-10-18T08:02:18.032Z,1028.18
2017-10-18T08:03:18.026Z,1028.11
2017-10-18T08:04:18.022Z,1028.05
2017-10-18T08:05:18.017Z,1028.01
2017-10-18T08:06:18.013Z,1027.96
2017-10-18T08:07:18.008Z,1027.95
2017-10-18T08:08:18.004Z,1027.92
2017-10-18T08:09:18.000Z,1027.86
2017-10-18T08:10:17.993Z,1027.8
2017-10-18T08:11:17.989Z,1027.77
2017-10-18T08:12:17.985Z,1027.76
2017-10-18T08:13:17.981Z,1027.74
2017-10-18T08:14:17.976Z,1027.74
2017-10-18T08:15:17.970Z,1027.77
2017-10-18T08:16:17.966Z,1027.66
2017-10-18T08:17:17.961Z,1027.65
2017-10-18T08:18:17.959Z,1027.62
2017-10-18T08:19:17.954Z,1027.58
2017-10-18T08:20:17.955Z,1027.54
2017-10-18T08:21:17.944Z,1027.49
2017-10-18T08:22:17.940Z,1027.52
2017-10-18T08:23:17.938Z,1027.45
2017-10-18T08:24:17.932Z,1027.46
2017-10-18T08:25:17.926Z,1027.37
2017-10-18T08:26:17.928Z,1027.32
2017-10-18T08:27:17.922Z,1027.26
2017-10-18T08:28:17.916Z,1027.23
2017-10-18T08:29:17.911Z,1027.18
2017-10-18T08:30:17.907Z,1027.15
2017-10-18T08:31:17.904Z,1027.2
2017-10-18T08:32:17.899Z,1027.21
2017-10-18T08:33:17.896Z,1027.16
2017-10-18T08:34:17.894Z,1027.11
2017-10-18T08:35:17.890Z,1027.06
2017-10-18T08:36:17.894Z,1027.04
2017-10-18T08:37:17.882Z,1026.99
2017-10-18T08:38:17.878Z,1027.02
2017-10-18T08:39:17.875Z,1027.06
2017-10-18T08:40:17.871Z,1027.07
2017-10-18T08:41:17.867Z,1027.13
2017-10-18T08:42:17.867Z,1027.08
2017-10-18T08:43:17.858Z,1027.05
2017-10-18T08:44:17.857Z,1027
2017-10-18T08:45:17.853Z,1026.96
2017-10-18T08:46:17.851Z,1026.92
2017-10-18T08:47:17.847Z,1026.89
2017-10-18T08:48:17.844Z,1026.88
2017-10-18T08:49:17.841Z,1026.84
2017-10-18T08:50:17.835Z,1026.88
2017-10-18T08:51:18.083Z,1026.94
2017-10-18T08:52:17.836Z,1026.95
2017-10-18T08:53:17.826Z,1027.08
2017-10-18T08:54:17.825Z,1027.11
2017-10-18T08:55:17.821Z,1027.15
2017-10-18T08:56:17.816Z,1027.13
2017-10-18T08:57:17.815Z,1027.21
2017-10-18T08:58:17.810Z,1027.2
2017-10-18T08:59:17.807Z,1027.25
2017-10-18T09:00:17.804Z,1027.31
2017-10-18T09:01:17.800Z,1027.28
2017-10-18T09:02:17.800Z,1027.29
2017-10-18T09:03:17.796Z,1027.35
2017-10-18T09:04:17.791Z,1027.33
2017-10-18T09:05:17.787Z,1027.32
2017-10-18T09:06:17.786Z,1027.28
2017-10-18T09:07:17.784Z,1027.26
2017-10-18T09:08:17.780Z,1027.29
2017-10-18T09:09:17.776Z,1027.32
2017-10-18T09:10:17.773Z,1027.36
2017-10-18T09:11:17.769Z,1027.43
2017-10-18T09:12:17.765Z,1027.5
2017-10-18T09:13:17.762Z,1027.52
2017-10-18T09:14:17.761Z,1027.56
2017-10-18T09:15:17.757Z,1027.62
2017-10-18T09:16:17.754Z,1027.6
2017-10-18T09:17:17.750Z,1027.59
2017-10-18T09:18:17.746Z,1027.63
2017-10-18T09:19:17.742Z,1027.68
2017-10-18T09:20:17.739Z,1027.74
2017-10-18T09:21:17.736Z,1027.68
2017-10-18T09:22:17.984Z,1027.65
2017-10-18T09:23:17.729Z,1027.72
2017-10-18T09:24:17.726Z,1027.83
2017-10-18T09:25:17.724Z,1027.83
2017-10-18T09:26:17.719Z,1027.85
2017-10-18T09:27:17.715Z,1027.8
2017-10-18T09:28:17.712Z,1027.85
2017-10-18T09:29:17.710Z,1027.86
2017-10-18T09:30:17.704Z,1027.84
2017-10-18T09:31:17.701Z,1027.81
2017-10-18T09:32:17.697Z,1027.78
2017-10-18T09:33:17.693Z,1027.78
2017-10-18T09:34:17.690Z,1027.84
2017-10-18T09:35:17.687Z,1027.82
2017-10-18T09:36:17.683Z,1027.81
2017-10-18T09:37:17.680Z,1027.82
2017-10-18T09:38:17.675Z,1027.8
2017-10-18T09:39:17.674Z,1027.82
2017-10-18T09:40:17.670Z,1027.84
2017-10-18T09:41:17.664Z,1027.85
2017-10-18T09:42:17.665Z,1027.85
2017-10-18T09:43:17.658Z,1027.88
2017-10-18T09:44:17.654Z,1027.89
2017-10-18T09:45:17.649Z,1027.93
2017-10-18T09:46:17.646Z,1027.98
2017-10-18T09:47:17.641Z,1028
2017-10-18T09:48:17.637Z,1027.97
2017-10-18T09:49:17.632Z,1027.94
2017-10-18T09:50:17.631Z,1027.94
2017-10-18T09:51:17.626Z,1027.91
2017-10-18T09:52:17.629Z,1027.86
2017-10-18T09:53:17.617Z,1027.82
2017-10-18T09:54:17.613Z,1027.8
2017-10-18T09:55:17.611Z,1027.82
2017-10-18T09:56:17.607Z,1027.83
2017-10-18T09:57:17.605Z,1027.79
2017-10-18T09:58:17.598Z,1027.78
2017-10-18T09:59:17.595Z,1027.8
2017-10-18T10:00:17.591Z,1027.82
2017-10-18T10:01:17.586Z,1027.81
2017-10-18T10:02:17.584Z,1027.82
2017-10-18T10:03:17.580Z,1027.77
2017-10-18T10:04:17.576Z,1027.78
2017-10-18T10:05:17.573Z,1027.78
2017-10-18T10:06:17.567Z,1027.78
2017-10-18T10:07:17.563Z,1027.77
2017-10-18T10:08:17.559Z,1027.75
2017-10-18T10:09:17.556Z,1027.74
2017-10-18T10:10:17.554Z,1027.68
2017-10-18T10:11:17.549Z,1027.68
2017-10-18T10:12:17.545Z,1027.69
2017-10-18T10:13:17.548Z,1027.68
2017-10-18T10:14:17.535Z,1027.63
2017-10-18T10:15:17.531Z,1027.6
2017-10-18T10:16:17.528Z,1027.6
2017-10-18T10:17:17.525Z,1027.55
2017-10-18T10:18:17.536Z,1027.54
2017-10-18T10:19:17.517Z,1027.54
2017-10-18T10:20:17.516Z,1027.49
2017-10-18T10:21:17.510Z,1027.52
2017-10-18T10:22:17.505Z,1027.5
2017-10-18T10:23:17.506Z,1027.42
2017-10-18T10:24:17.502Z,1027.44
2017-10-18T10:25:17.501Z,1027.42
2017-10-18T10:26:17.491Z,1027.41
2017-10-18T10:27:17.487Z,1027.41
2017-10-18T10:28:17.483Z,1027.4
2017-10-18T10:29:17.480Z,1027.43
2017-10-18T10:30:17.477Z,1027.42
2017-10-18T10:31:17.473Z,1027.42
2017-10-18T10:32:17.471Z,1027.4
2017-10-18T10:33:17.468Z,1027.38
2017-10-18T10:34:17.463Z,1027.38
2017-10-18T10:35:17.460Z,1027.36
2017-10-18T10:36:17.455Z,1027.33
2017-10-18T10:37:17.452Z,1027.36
2017-10-18T10:38:17.450Z,1027.34
2017-10-18T10:39:17.446Z,1027.32
2017-10-18T10:40:17.442Z,1027.34
2017-10-18T10:41:17.439Z,1027.34
2017-10-18T10:42:17.432Z,1027.34
2017-10-18T10:43:17.431Z,1027.34
2017-10-18T10:44:17.426Z,1027.35
2017-10-18T10:45:17.423Z,1027.33
2017-10-18T10:46:17.419Z,1027.34
2017-10-18T10:47:17.416Z,1027.31
2017-10-18T10:48:17.411Z,1027.31
2017-10-18T10:49:17.409Z,1027.28
2017-10-18T10:50:17.406Z,1027.25
2017-10-18T10:51:17.403Z,1027.25
2017-10-18T10:52:17.403Z,1027.23
2017-10-18T10:53:17.396Z,1027.19
2017-10-18T10:54:17.398Z,1027.19
2017-10-18T10:55:17.388Z,1027.18
2017-10-18T10:56:17.385Z,1027.13
2017-10-18T10:57:17.382Z,1027.08
2017-10-18T10:58:17.378Z,1027.06
2017-10-18T10:59:17.374Z,1027.06
2017-10-18T11:00:17.372Z,1027.04
2017-10-18T11:01:17.367Z,1027.05
2017-10-18T11:02:17.369Z,1027.07
2017-10-18T11:03:17.359Z,1027.1
2017-10-18T11:04:17.362Z,1027.09
2017-10-18T11:05:17.352Z,1027.11
2017-10-18T11:06:17.351Z,1027.1
2017-10-18T11:07:17.351Z,1027.12
2017-10-18T11:08:17.343Z,1027.1
2017-10-18T11:09:17.339Z,1027.06
2017-10-18T11:10:17.365Z,1027.05
2017-10-18T11:11:17.331Z,1027.09
2017-10-18T11:12:17.329Z,1027.08
2017-10-18T11:13:17.324Z,1027.12
2017-10-18T11:14:17.320Z,1027.12
2017-10-18T11:15:17.318Z,1027.12
2017-10-18T11:16:17.312Z,1027.12
2017-10-18T11:17:17.309Z,1027.07
2017-10-18T11:18:17.308Z,1027.07
2017-10-18T11:19:17.303Z,1027.06
2017-10-18T11:20:17.306Z,1027
2017-10-18T11:21:17.297Z,1027.05
2017-10-18T11:22:17.294Z,1027.06
2017-10-18T11:23:17.289Z,1027.05
2017-10-18T11:24:17.286Z,1027.02
2017-10-18T11:25:17.281Z,1027
2017-10-18T11:26:17.280Z,1026.94
2017-10-18T11:27:17.275Z,1026.98
2017-10-18T11:28:17.272Z,1026.95
2017-10-18T11:29:17.268Z,1026.95
2017-10-18T11:30:17.263Z,1026.94
2017-10-18T11:31:17.261Z,1026.88
2017-10-18T11:32:17.256Z,1026.88
2017-10-18T11:33:17.253Z,1026.86
2017-10-18T11:34:17.252Z,1026.86
2017-10-18T11:35:17.247Z,1026.83
2017-10-18T11:36:17.244Z,1026.84
2017-10-18T11:37:17.239Z,1026.83
2017-10-18T11:38:17.236Z,1026.81
2017-10-18T11:39:17.234Z,1026.78
2017-10-18T11:40:17.230Z,1026.8
2017-10-18T11:41:17.227Z,1026.79
2017-10-18T11:42:18.421Z,1026.76
2017-10-18T11:43:17.218Z,1026.71
2017-10-18T11:44:17.215Z,1026.66
2017-10-18T11:45:17.212Z,1026.64
2017-10-18T11:46:17.209Z,1026.6
2017-10-18T11:47:17.206Z,1026.6
2017-10-18T11:48:17.202Z,1026.58
2017-10-18T11:49:17.198Z,1026.56
2017-10-18T11:50:17.193Z,1026.54
2017-10-18T11:51:17.190Z,1026.59
2017-10-18T11:52:17.188Z,1026.56
2017-10-18T11:53:17.209Z,1026.55
2017-10-18T11:54:17.182Z,1026.54
2017-10-18T11:55:17.178Z,1026.51
2017-10-18T11:56:18.373Z,1026.49
2017-10-18T11:57:17.171Z,1026.49
2017-10-18T11:58:17.167Z,1026.5
2017-10-18T11:59:17.163Z,1026.46
2017-10-18T12:00:17.159Z,1026.43
2017-10-18T12:01:17.156Z,1026.46
2017-10-18T12:02:17.156Z,1026.45
2017-10-18T12:03:17.156Z,1026.44
2017-10-18T12:04:17.147Z,1026.39
2017-10-18T12:05:17.148Z,1026.38
2017-10-18T12:06:17.141Z,1026.35
2017-10-18T12:07:17.139Z,1026.33
2017-10-18T12:08:17.135Z,1026.3